sensor_id;sensor_type;location;lat;lon;timestamp;P1;durP1;ratioP1;P2;durP2;ratioP2
73168;SDS011;61379;59.732;30.468;2023-06-10T00:01:34;10.48;;;8.68;;
73168;SDS011;61379;59.732;30.468;2023-06-10T00:04:01;8.98;;;8.02;;
73168;SDS011;61379;59.732;30.468;2023-06-10T00:06:28;12.27;;;8.50;;
73168;SDS011;61379;59.732;30.468;2023-06-10T00:09:01;11.70;;;8.63;;
73168;SDS011;61379;59.732;30.468;2023-06-10T00:11:30;14.93;;;8.90;;
73168;SDS011;61379;59.732;30.468;2023-06-10T00:13:56;13.75;;;9.10;;
73168;SDS011;61379;59.732;30.468;2023-06-10T00:16:25;13.20;;;8.85;;
73168;SDS011;61379;59.732;30.468;2023-06-10T00:18:51;8.10;;;6.93;;
73168;SDS011;61379;59.732;30.468;2023-06-10T00:21:18;8.65;;;7.75;;
73168;SDS011;61379;59.732;30.468;2023-06-10T00:23:45;9.50;;;6.57;;
73168;SDS011;61379;59.732;30.468;2023-06-10T00:26:12;8.07;;;7.28;;
73168;SDS011;61379;59.732;30.468;2023-06-10T00:28:39;8.98;;;7.63;;
73168;SDS011;61379;59.732;30.468;2023-06-10T00:31:05;8.32;;;7.63;;
73168;SDS011;61379;59.732;30.468;2023-06-10T00:33:34;8.85;;;6.47;;
73168;SDS011;61379;59.732;30.468;2023-06-10T00:36:00;9.23;;;8.07;;
73168;SDS011;61379;59.732;30.468;2023-06-10T00:38:27;7.93;;;7.22;;
73168;SDS011;61379;59.732;30.468;2023-06-10T00:40:54;8.55;;;7.75;;
73168;SDS011;61379;59.732;30.468;2023-06-10T00:43:21;8.60;;;8.00;;
73168;SDS011;61379;59.732;30.468;2023-06-10T00:45:48;9.60;;;8.68;;
73168;SDS011;61379;59.732;30.468;2023-06-10T00:48:14;8.07;;;7.32;;
73168;SDS011;61379;59.732;30.468;2023-06-10T00:50:43;7.97;;;7.25;;
73168;SDS011;61379;59.732;30.468;2023-06-10T00:53:09;8.00;;;7.20;;
73168;SDS011;61379;59.732;30.468;2023-06-10T00:55:37;9.27;;;8.35;;
73168;SDS011;61379;59.732;30.468;2023-06-10T00:58:04;9.32;;;8.27;;
73168;SDS011;61379;59.732;30.468;2023-06-10T01:00:30;8.88;;;7.90;;
73168;SDS011;61379;59.732;30.468;2023-06-10T01:02:57;8.38;;;7.68;;
73168;SDS011;61379;59.732;30.468;2023-06-10T01:05:24;8.40;;;7.47;;
73168;SDS011;61379;59.732;30.468;2023-06-10T01:07:55;8.25;;;7.55;;
73168;SDS011;61379;59.732;30.468;2023-06-10T01:10:24;8.10;;;7.13;;
73168;SDS011;61379;59.732;30.468;2023-06-10T01:12:55;11.15;;;7.75;;
73168;SDS011;61379;59.732;30.468;2023-06-10T01:15:28;10.88;;;7.85;;
73168;SDS011;61379;59.732;30.468;2023-06-10T01:17:56;9.15;;;7.50;;
73168;SDS011;61379;59.732;30.468;2023-06-10T01:20:23;8.63;;;7.78;;
73168;SDS011;61379;59.732;30.468;2023-06-10T01:22:53;10.65;;;7.50;;
73168;SDS011;61379;59.732;30.468;2023-06-10T01:25:20;9.43;;;6.93;;
73168;SDS011;61379;59.732;30.468;2023-06-10T01:27:53;7.50;;;6.80;;
73168;SDS011;61379;59.732;30.468;2023-06-10T01:30:22;7.90;;;6.82;;
73168;SDS011;61379;59.732;30.468;2023-06-10T01:32:55;8.38;;;7.50;;
73168;SDS011;61379;59.732;30.468;2023-06-10T01:35:24;9.30;;;7.07;;
73168;SDS011;61379;59.732;30.468;2023-06-10T01:37:51;7.78;;;7.07;;
73168;SDS011;61379;59.732;30.468;2023-06-10T01:40:21;8.68;;;7.88;;
73168;SDS011;61379;59.732;30.468;2023-06-10T01:42:48;8.30;;;7.60;;
73168;SDS011;61379;59.732;30.468;2023-06-10T01:45:15;7.53;;;6.93;;
73168;SDS011;61379;59.732;30.468;2023-06-10T01:47:41;7.63;;;7.03;;
73168;SDS011;61379;59.732;30.468;2023-06-10T01:50:09;8.15;;;7.22;;
73168;SDS011;61379;59.732;30.468;2023-06-10T01:52:36;8.52;;;7.63;;
73168;SDS011;61379;59.732;30.468;2023-06-10T01:55:03;7.63;;;6.93;;
73168;SDS011;61379;59.732;30.468;2023-06-10T01:57:32;8.13;;;7.32;;
73168;SDS011;61379;59.732;30.468;2023-06-10T01:59:59;7.80;;;7.18;;
73168;SDS011;61379;59.732;30.468;2023-06-10T02:02:26;8.35;;;7.28;;
73168;SDS011;61379;59.732;30.468;2023-06-10T02:04:52;8.25;;;7.55;;
73168;SDS011;61379;59.732;30.468;2023-06-10T02:07:19;8.32;;;7.63;;
73168;SDS011;61379;59.732;30.468;2023-06-10T02:09:46;7.93;;;7.22;;
73168;SDS011;61379;59.732;30.468;2023-06-10T02:12:13;7.25;;;6.75;;
73168;SDS011;61379;59.732;30.468;2023-06-10T02:14:41;7.20;;;5.53;;
73168;SDS011;61379;59.732;30.468;2023-06-10T02:17:08;7.20;;;6.60;;
73168;SDS011;61379;59.732;30.468;2023-06-10T02:19:38;8.25;;;7.53;;
73168;SDS011;61379;59.732;30.468;2023-06-10T02:24:35;7.88;;;7.20;;
73168;SDS011;61379;59.732;30.468;2023-06-10T02:27:02;7.75;;;7.15;;
73168;SDS011;61379;59.732;30.468;2023-06-10T02:29:29;7.70;;;7.10;;
73168;SDS011;61379;59.732;30.468;2023-06-10T02:31:57;8.07;;;7.30;;
73168;SDS011;61379;59.732;30.468;2023-06-10T02:34:24;7.38;;;6.78;;
73168;SDS011;61379;59.732;30.468;2023-06-10T02:36:50;7.78;;;7.18;;
73168;SDS011;61379;59.732;30.468;2023-06-10T02:39:17;7.63;;;7.13;;
73168;SDS011;61379;59.732;30.468;2023-06-10T02:41:44;7.35;;;6.75;;
73168;SDS011;61379;59.732;30.468;2023-06-10T02:44:11;9.15;;;7.68;;
73168;SDS011;61379;59.732;30.468;2023-06-10T02:46:37;7.72;;;7.13;;
73168;SDS011;61379;59.732;30.468;2023-06-10T02:49:06;8.23;;;7.53;;
73168;SDS011;61379;59.732;30.468;2023-06-10T02:51:32;7.85;;;7.07;;
73168;SDS011;61379;59.732;30.468;2023-06-10T02:53:59;8.18;;;7.43;;
73168;SDS011;61379;59.732;30.468;2023-06-10T02:56:26;7.85;;;7.15;;
73168;SDS011;61379;59.732;30.468;2023-06-10T02:58:53;8.23;;;7.53;;
73168;SDS011;61379;59.732;30.468;2023-06-10T03:01:22;7.90;;;7.13;;
73168;SDS011;61379;59.732;30.468;2023-06-10T03:03:49;7.72;;;7.05;;
73168;SDS011;61379;59.732;30.468;2023-06-10T03:06:17;7.63;;;7.10;;
73168;SDS011;61379;59.732;30.468;2023-06-10T03:08:44;7.60;;;7.00;;
73168;SDS011;61379;59.732;30.468;2023-06-10T03:11:11;7.57;;;7.05;;
73168;SDS011;61379;59.732;30.468;2023-06-10T03:13:38;7.55;;;7.05;;
73168;SDS011;61379;59.732;30.468;2023-06-10T03:16:05;7.40;;;6.90;;
73168;SDS011;61379;59.732;30.468;2023-06-10T03:18:33;6.55;;;6.05;;
73168;SDS011;61379;59.732;30.468;2023-06-10T03:21:00;7.28;;;6.78;;
73168;SDS011;61379;59.732;30.468;2023-06-10T03:23:29;7.78;;;6.95;;
73168;SDS011;61379;59.732;30.468;2023-06-10T03:25:55;7.82;;;7.10;;
73168;SDS011;61379;59.732;30.468;2023-06-10T03:28:22;7.65;;;7.07;;
73168;SDS011;61379;59.732;30.468;2023-06-10T03:30:49;7.65;;;7.05;;
73168;SDS011;61379;59.732;30.468;2023-06-10T03:33:17;7.75;;;7.15;;
73168;SDS011;61379;59.732;30.468;2023-06-10T03:35:43;7.53;;;7.00;;
73168;SDS011;61379;59.732;30.468;2023-06-10T03:38:10;7.97;;;7.38;;
73168;SDS011;61379;59.732;30.468;2023-06-10T03:40:38;7.22;;;6.63;;
73168;SDS011;61379;59.732;30.468;2023-06-10T03:43:05;7.72;;;7.13;;
73168;SDS011;61379;59.732;30.468;2023-06-10T03:45:32;7.95;;;7.28;;
73168;SDS011;61379;59.732;30.468;2023-06-10T03:47:59;9.18;;;8.20;;
73168;SDS011;61379;59.732;30.468;2023-06-10T03:50:26;12.68;;;8.80;;
73168;SDS011;61379;59.732;30.468;2023-06-10T03:52:53;9.38;;;8.57;;
73168;SDS011;61379;59.732;30.468;2023-06-10T03:55:20;9.10;;;8.40;;
73168;SDS011;61379;59.732;30.468;2023-06-10T03:57:50;10.40;;;8.63;;
73168;SDS011;61379;59.732;30.468;2023-06-10T04:00:17;8.70;;;7.90;;
73168;SDS011;61379;59.732;30.468;2023-06-10T04:02:46;8.15;;;7.35;;
73168;SDS011;61379;59.732;30.468;2023-06-10T04:05:15;8.02;;;7.43;;
73168;SDS011;61379;59.732;30.468;2023-06-10T04:07:42;8.20;;;7.60;;
73168;SDS011;61379;59.732;30.468;2023-06-10T04:10:09;8.23;;;7.63;;
73168;SDS011;61379;59.732;30.468;2023-06-10T04:12:37;7.90;;;7.30;;
73168;SDS011;61379;59.732;30.468;2023-06-10T04:15:06;8.40;;;7.70;;
73168;SDS011;61379;59.732;30.468;2023-06-10T04:17:33;6.85;;;6.35;;
73168;SDS011;61379;59.732;30.468;2023-06-10T04:19:59;9.10;;;8.30;;
73168;SDS011;61379;59.732;30.468;2023-06-10T04:22:29;7.90;;;7.30;;
73168;SDS011;61379;59.732;30.468;2023-06-10T04:24:56;8.38;;;7.72;;
73168;SDS011;61379;59.732;30.468;2023-06-10T04:27:24;8.90;;;8.30;;
73168;SDS011;61379;59.732;30.468;2023-06-10T04:29:51;8.52;;;7.85;;
73168;SDS011;61379;59.732;30.468;2023-06-10T04:32:19;8.65;;;7.93;;
73168;SDS011;61379;59.732;30.468;2023-06-10T04:34:46;8.15;;;7.55;;
73168;SDS011;61379;59.732;30.468;2023-06-10T04:37:13;9.02;;;8.38;;
73168;SDS011;61379;59.732;30.468;2023-06-10T04:39:40;8.70;;;7.78;;
73168;SDS011;61379;59.732;30.468;2023-06-10T04:42:07;8.68;;;8.02;;
73168;SDS011;61379;59.732;30.468;2023-06-10T04:44:34;8.73;;;7.88;;
73168;SDS011;61379;59.732;30.468;2023-06-10T04:47:01;9.90;;;9.20;;
73168;SDS011;61379;59.732;30.468;2023-06-10T04:49:29;8.98;;;8.32;;
73168;SDS011;61379;59.732;30.468;2023-06-10T04:51:57;7.93;;;6.70;;
73168;SDS011;61379;59.732;30.468;2023-06-10T04:54:25;8.95;;;7.95;;
73168;SDS011;61379;59.732;30.468;2023-06-10T04:56:51;12.27;;;9.80;;
73168;SDS011;61379;59.732;30.468;2023-06-10T04:59:19;9.48;;;8.40;;
73168;SDS011;61379;59.732;30.468;2023-06-10T05:01:46;8.93;;;8.00;;
73168;SDS011;61379;59.732;30.468;2023-06-10T05:04:13;9.48;;;8.43;;
73168;SDS011;61379;59.732;30.468;2023-06-10T05:06:41;11.38;;;10.05;;
73168;SDS011;61379;59.732;30.468;2023-06-10T05:09:08;16.35;;;9.55;;
73168;SDS011;61379;59.732;30.468;2023-06-10T05:11:34;14.52;;;8.43;;
73168;SDS011;61379;59.732;30.468;2023-06-10T05:14:01;10.95;;;7.20;;
73168;SDS011;61379;59.732;30.468;2023-06-10T05:16:28;11.00;;;8.18;;
73168;SDS011;61379;59.732;30.468;2023-06-10T05:18:54;10.75;;;8.55;;
73168;SDS011;61379;59.732;30.468;2023-06-10T05:21:21;10.18;;;7.20;;
73168;SDS011;61379;59.732;30.468;2023-06-10T05:23:49;9.88;;;8.80;;
73168;SDS011;61379;59.732;30.468;2023-06-10T05:26:16;8.55;;;7.75;;
73168;SDS011;61379;59.732;30.468;2023-06-10T05:28:43;9.18;;;8.27;;
73168;SDS011;61379;59.732;30.468;2023-06-10T05:31:10;9.23;;;8.32;;
73168;SDS011;61379;59.732;30.468;2023-06-10T05:33:37;8.75;;;7.95;;
73168;SDS011;61379;59.732;30.468;2023-06-10T05:36:04;8.75;;;8.05;;
73168;SDS011;61379;59.732;30.468;2023-06-10T05:38:30;9.68;;;8.05;;
73168;SDS011;61379;59.732;30.468;2023-06-10T05:40:59;9.73;;;8.90;;
73168;SDS011;61379;59.732;30.468;2023-06-10T05:43:26;9.65;;;8.75;;
73168;SDS011;61379;59.732;30.468;2023-06-10T05:45:52;9.77;;;8.90;;
73168;SDS011;61379;59.732;30.468;2023-06-10T05:48:19;8.57;;;7.85;;
73168;SDS011;61379;59.732;30.468;2023-06-10T05:50:46;7.55;;;6.95;;
73168;SDS011;61379;59.732;30.468;2023-06-10T05:53:13;8.07;;;7.47;;
73168;SDS011;61379;59.732;30.468;2023-06-10T05:55:41;7.93;;;7.38;;
73168;SDS011;61379;59.732;30.468;2023-06-10T05:58:09;7.72;;;7.03;;
73168;SDS011;61379;59.732;30.468;2023-06-10T06:00:37;7.45;;;6.75;;
73168;SDS011;61379;59.732;30.468;2023-06-10T06:03:05;7.72;;;7.22;;
73168;SDS011;61379;59.732;30.468;2023-06-10T06:05:32;7.32;;;6.82;;
73168;SDS011;61379;59.732;30.468;2023-06-10T06:08:00;6.63;;;6.13;;
73168;SDS011;61379;59.732;30.468;2023-06-10T06:10:27;7.68;;;7.13;;
73168;SDS011;61379;59.732;30.468;2023-06-10T06:12:54;7.82;;;7.22;;
73168;SDS011;61379;59.732;30.468;2023-06-10T06:15:22;8.27;;;7.68;;
73168;SDS011;61379;59.732;30.468;2023-06-10T06:17:49;7.80;;;7.25;;
73168;SDS011;61379;59.732;30.468;2023-06-10T06:20:18;6.28;;;5.72;;
73168;SDS011;61379;59.732;30.468;2023-06-10T06:22:44;7.22;;;6.72;;
73168;SDS011;61379;59.732;30.468;2023-06-10T06:25:11;6.50;;;6.10;;
73168;SDS011;61379;59.732;30.468;2023-06-10T06:27:38;8.02;;;7.53;;
73168;SDS011;61379;59.732;30.468;2023-06-10T06:30:05;7.82;;;7.20;;
73168;SDS011;61379;59.732;30.468;2023-06-10T06:32:34;7.55;;;7.00;;
73168;SDS011;61379;59.732;30.468;2023-06-10T06:35:01;7.85;;;7.35;;
73168;SDS011;61379;59.732;30.468;2023-06-10T06:37:29;7.15;;;6.75;;
73168;SDS011;61379;59.732;30.468;2023-06-10T06:39:55;7.95;;;7.38;;
73168;SDS011;61379;59.732;30.468;2023-06-10T06:42:22;7.80;;;7.20;;
73168;SDS011;61379;59.732;30.468;2023-06-10T06:44:49;9.65;;;8.45;;
73168;SDS011;61379;59.732;30.468;2023-06-10T06:47:16;9.88;;;8.82;;
73168;SDS011;61379;59.732;30.468;2023-06-10T06:49:46;8.05;;;7.35;;
73168;SDS011;61379;59.732;30.468;2023-06-10T06:52:13;10.90;;;9.02;;
73168;SDS011;61379;59.732;30.468;2023-06-10T06:54:40;10.70;;;8.02;;
73168;SDS011;61379;59.732;30.468;2023-06-10T06:57:07;8.60;;;8.00;;
73168;SDS011;61379;59.732;30.468;2023-06-10T06:59:33;7.80;;;7.30;;
73168;SDS011;61379;59.732;30.468;2023-06-10T07:02:00;8.27;;;7.70;;
73168;SDS011;61379;59.732;30.468;2023-06-10T07:04:27;8.05;;;7.55;;
73168;SDS011;61379;59.732;30.468;2023-06-10T07:06:55;8.25;;;7.40;;
73168;SDS011;61379;59.732;30.468;2023-06-10T07:09:22;8.82;;;8.10;;
73168;SDS011;61379;59.732;30.468;2023-06-10T07:11:49;8.25;;;7.55;;
73168;SDS011;61379;59.732;30.468;2023-06-10T07:14:16;8.00;;;7.30;;
73168;SDS011;61379;59.732;30.468;2023-06-10T07:16:42;7.85;;;7.15;;
73168;SDS011;61379;59.732;30.468;2023-06-10T07:19:10;7.68;;;7.18;;
73168;SDS011;61379;59.732;30.468;2023-06-10T07:21:37;7.68;;;7.20;;
73168;SDS011;61379;59.732;30.468;2023-06-10T07:24:06;8.35;;;7.75;;
73168;SDS011;61379;59.732;30.468;2023-06-10T07:26:33;7.47;;;6.88;;
73168;SDS011;61379;59.732;30.468;2023-06-10T07:29:00;6.90;;;6.50;;
73168;SDS011;61379;59.732;30.468;2023-06-10T07:31:26;7.18;;;6.78;;
73168;SDS011;61379;59.732;30.468;2023-06-10T07:33:54;8.35;;;7.68;;
73168;SDS011;61379;59.732;30.468;2023-06-10T07:36:20;7.97;;;7.47;;
73168;SDS011;61379;59.732;30.468;2023-06-10T07:38:47;8.45;;;7.63;;
73168;SDS011;61379;59.732;30.468;2023-06-10T07:41:16;8.05;;;7.55;;
73168;SDS011;61379;59.732;30.468;2023-06-10T07:43:43;8.40;;;7.80;;
73168;SDS011;61379;59.732;30.468;2023-06-10T07:46:10;8.23;;;7.65;;
73168;SDS011;61379;59.732;30.468;2023-06-10T07:48:36;7.45;;;6.90;;
73168;SDS011;61379;59.732;30.468;2023-06-10T07:51:03;7.93;;;7.43;;
73168;SDS011;61379;59.732;30.468;2023-06-10T07:53:30;8.02;;;7.43;;
73168;SDS011;61379;59.732;30.468;2023-06-10T07:55:57;8.00;;;7.47;;
73168;SDS011;61379;59.732;30.468;2023-06-10T07:58:25;7.70;;;7.10;;
73168;SDS011;61379;59.732;30.468;2023-06-10T08:00:52;7.78;;;7.18;;
73168;SDS011;61379;59.732;30.468;2023-06-10T08:03:19;7.38;;;6.88;;
73168;SDS011;61379;59.732;30.468;2023-06-10T08:05:46;7.97;;;7.25;;
73168;SDS011;61379;59.732;30.468;2023-06-10T08:08:13;8.32;;;7.60;;
73168;SDS011;61379;59.732;30.468;2023-06-10T08:10:40;7.70;;;7.20;;
73168;SDS011;61379;59.732;30.468;2023-06-10T08:13:07;7.85;;;7.35;;
73168;SDS011;61379;59.732;30.468;2023-06-10T08:15:35;7.57;;;6.97;;
73168;SDS011;61379;59.732;30.468;2023-06-10T08:18:02;7.72;;;7.00;;
73168;SDS011;61379;59.732;30.468;2023-06-10T08:20:29;8.32;;;7.63;;
73168;SDS011;61379;59.732;30.468;2023-06-10T08:22:56;8.75;;;7.78;;
73168;SDS011;61379;59.732;30.468;2023-06-10T08:25:22;6.57;;;5.95;;
73168;SDS011;61379;59.732;30.468;2023-06-10T08:27:49;8.48;;;7.68;;
73168;SDS011;61379;59.732;30.468;2023-06-10T08:30:18;8.10;;;7.50;;
73168;SDS011;61379;59.732;30.468;2023-06-10T08:32:46;7.68;;;7.25;;
73168;SDS011;61379;59.732;30.468;2023-06-10T08:35:12;8.20;;;7.45;;
73168;SDS011;61379;59.732;30.468;2023-06-10T08:37:39;8.95;;;8.35;;
73168;SDS011;61379;59.732;30.468;2023-06-10T08:40:07;6.75;;;6.25;;
73168;SDS011;61379;59.732;30.468;2023-06-10T08:42:36;9.95;;;7.53;;
73168;SDS011;61379;59.732;30.468;2023-06-10T08:45:06;8.43;;;7.65;;
73168;SDS011;61379;59.732;30.468;2023-06-10T08:47:34;7.85;;;7.35;;
73168;SDS011;61379;59.732;30.468;2023-06-10T08:50:03;7.38;;;6.88;;
73168;SDS011;61379;59.732;30.468;2023-06-10T08:54:58;7.97;;;7.47;;
73168;SDS011;61379;59.732;30.468;2023-06-10T08:57:25;8.02;;;7.43;;
73168;SDS011;61379;59.732;30.468;2023-06-10T08:59:53;8.55;;;7.93;;
73168;SDS011;61379;59.732;30.468;2023-06-10T09:02:20;6.53;;;6.05;;
73168;SDS011;61379;59.732;30.468;2023-06-10T09:04:47;7.25;;;6.65;;
73168;SDS011;61379;59.732;30.468;2023-06-10T09:07:16;8.43;;;7.78;;
73168;SDS011;61379;59.732;30.468;2023-06-10T09:09:43;8.02;;;7.53;;
73168;SDS011;61379;59.732;30.468;2023-06-10T09:12:11;6.40;;;5.90;;
73168;SDS011;61379;59.732;30.468;2023-06-10T09:14:38;8.55;;;7.90;;
73168;SDS011;61379;59.732;30.468;2023-06-10T09:17:05;7.90;;;7.30;;
73168;SDS011;61379;59.732;30.468;2023-06-10T09:19:32;8.00;;;7.40;;
73168;SDS011;61379;59.732;30.468;2023-06-10T09:21:59;8.35;;;7.80;;
73168;SDS011;61379;59.732;30.468;2023-06-10T09:24:28;6.80;;;6.10;;
73168;SDS011;61379;59.732;30.468;2023-06-10T09:27:01;7.78;;;7.28;;
73168;SDS011;61379;59.732;30.468;2023-06-10T09:29:28;8.73;;;8.05;;
73168;SDS011;61379;59.732;30.468;2023-06-10T09:31:55;8.50;;;7.82;;
73168;SDS011;61379;59.732;30.468;2023-06-10T09:34:24;8.75;;;8.05;;
73168;SDS011;61379;59.732;30.468;2023-06-10T09:36:51;9.35;;;8.68;;
73168;SDS011;61379;59.732;30.468;2023-06-10T09:39:18;9.57;;;8.98;;
73168;SDS011;61379;59.732;30.468;2023-06-10T09:41:47;8.95;;;8.43;;
73168;SDS011;61379;59.732;30.468;2023-06-10T09:44:14;8.00;;;7.50;;
73168;SDS011;61379;59.732;30.468;2023-06-10T09:46:41;8.65;;;7.97;;
73168;SDS011;61379;59.732;30.468;2023-06-10T09:49:08;8.65;;;8.15;;
73168;SDS011;61379;59.732;30.468;2023-06-10T09:51:35;8.90;;;8.40;;
73168;SDS011;61379;59.732;30.468;2023-06-10T09:54:02;9.65;;;8.95;;
73168;SDS011;61379;59.732;30.468;2023-06-10T09:56:33;9.35;;;8.65;;
73168;SDS011;61379;59.732;30.468;2023-06-10T09:59:01;9.27;;;8.57;;
73168;SDS011;61379;59.732;30.468;2023-06-10T10:01:28;9.15;;;8.57;;
73168;SDS011;61379;59.732;30.468;2023-06-10T10:03:56;9.90;;;9.20;;
73168;SDS011;61379;59.732;30.468;2023-06-10T10:06:23;9.57;;;8.52;;
73168;SDS011;61379;59.732;30.468;2023-06-10T10:08:50;9.45;;;8.80;;
73168;SDS011;61379;59.732;30.468;2023-06-10T10:11:19;8.77;;;8.15;;
73168;SDS011;61379;59.732;30.468;2023-06-10T10:13:47;8.98;;;8.10;;
73168;SDS011;61379;59.732;30.468;2023-06-10T10:16:16;9.20;;;8.30;;
73168;SDS011;61379;59.732;30.468;2023-06-10T10:18:45;8.65;;;7.88;;
73168;SDS011;61379;59.732;30.468;2023-06-10T10:21:13;8.45;;;7.75;;
73168;SDS011;61379;59.732;30.468;2023-06-10T10:23:43;9.10;;;8.40;;
73168;SDS011;61379;59.732;30.468;2023-06-10T10:26:11;9.95;;;9.20;;
73168;SDS011;61379;59.732;30.468;2023-06-10T10:28:41;8.50;;;7.93;;
73168;SDS011;61379;59.732;30.468;2023-06-10T10:31:08;8.40;;;7.70;;
73168;SDS011;61379;59.732;30.468;2023-06-10T10:33:42;8.23;;;7.50;;
73168;SDS011;61379;59.732;30.468;2023-06-10T10:36:12;9.93;;;9.13;;
73168;SDS011;61379;59.732;30.468;2023-06-10T10:38:39;9.82;;;9.20;;
73168;SDS011;61379;59.732;30.468;2023-06-10T10:41:07;10.32;;;9.45;;
73168;SDS011;61379;59.732;30.468;2023-06-10T10:43:33;9.00;;;8.35;;
73168;SDS011;61379;59.732;30.468;2023-06-10T10:46:01;8.85;;;8.27;;
73168;SDS011;61379;59.732;30.468;2023-06-10T10:48:32;7.72;;;7.22;;
73168;SDS011;61379;59.732;30.468;2023-06-10T10:51:01;9.45;;;8.82;;
73168;SDS011;61379;59.732;30.468;2023-06-10T10:53:28;9.60;;;8.90;;
73168;SDS011;61379;59.732;30.468;2023-06-10T10:55:58;9.75;;;9.20;;
73168;SDS011;61379;59.732;30.468;2023-06-10T10:58:25;9.85;;;9.25;;
73168;SDS011;61379;59.732;30.468;2023-06-10T11:00:52;9.20;;;8.60;;
73168;SDS011;61379;59.732;30.468;2023-06-10T11:03:19;8.27;;;7.75;;
73168;SDS011;61379;59.732;30.468;2023-06-10T11:05:46;9.43;;;8.85;;
73168;SDS011;61379;59.732;30.468;2023-06-10T11:08:45;9.20;;;8.70;;
73168;SDS011;61379;59.732;30.468;2023-06-10T11:11:16;9.38;;;8.68;;
73168;SDS011;61379;59.732;30.468;2023-06-10T11:13:48;9.25;;;8.57;;
73168;SDS011;61379;59.732;30.468;2023-06-10T11:16:23;9.13;;;8.52;;
73168;SDS011;61379;59.732;30.468;2023-06-10T11:18:53;9.93;;;8.85;;
73168;SDS011;61379;59.732;30.468;2023-06-10T11:21:20;7.72;;;7.13;;
73168;SDS011;61379;59.732;30.468;2023-06-10T11:23:48;10.02;;;9.07;;
73168;SDS011;61379;59.732;30.468;2023-06-10T11:26:17;9.32;;;8.82;;
73168;SDS011;61379;59.732;30.468;2023-06-10T11:29:04;8.63;;;8.13;;
73168;SDS011;61379;59.732;30.468;2023-06-10T11:31:31;9.13;;;8.63;;
73168;SDS011;61379;59.732;30.468;2023-06-10T11:33:58;9.75;;;8.80;;
73168;SDS011;61379;59.732;30.468;2023-06-10T11:36:26;10.07;;;9.18;;
73168;SDS011;61379;59.732;30.468;2023-06-10T11:38:55;8.48;;;7.82;;
73168;SDS011;61379;59.732;30.468;2023-06-10T11:41:23;8.98;;;8.48;;
73168;SDS011;61379;59.732;30.468;2023-06-10T11:43:50;9.18;;;8.68;;
73168;SDS011;61379;59.732;30.468;2023-06-10T11:46:17;9.27;;;8.52;;
73168;SDS011;61379;59.732;30.468;2023-06-10T11:48:48;9.98;;;9.48;;
73168;SDS011;61379;59.732;30.468;2023-06-10T11:51:15;10.05;;;9.38;;
73168;SDS011;61379;59.732;30.468;2023-06-10T11:53:43;10.15;;;9.55;;
73168;SDS011;61379;59.732;30.468;2023-06-10T11:56:11;10.38;;;9.45;;
73168;SDS011;61379;59.732;30.468;2023-06-10T11:58:38;10.02;;;9.32;;
73168;SDS011;61379;59.732;30.468;2023-06-10T12:01:07;10.27;;;9.45;;
73168;SDS011;61379;59.732;30.468;2023-06-10T12:03:35;9.63;;;9.02;;
73168;SDS011;61379;59.732;30.468;2023-06-10T12:06:02;9.23;;;8.52;;
73168;SDS011;61379;59.732;30.468;2023-06-10T12:08:29;9.80;;;9.18;;
73168;SDS011;61379;59.732;30.468;2023-06-10T12:10:56;10.07;;;9.43;;
73168;SDS011;61379;59.732;30.468;2023-06-10T12:13:25;9.55;;;8.82;;
73168;SDS011;61379;59.732;30.468;2023-06-10T12:15:52;9.77;;;9.00;;
73168;SDS011;61379;59.732;30.468;2023-06-10T12:18:20;10.38;;;9.57;;
73168;SDS011;61379;59.732;30.468;2023-06-10T12:20:47;9.63;;;9.02;;
73168;SDS011;61379;59.732;30.468;2023-06-10T12:23:16;9.32;;;8.82;;
73168;SDS011;61379;59.732;30.468;2023-06-10T12:25:49;8.35;;;7.75;;
73168;SDS011;61379;59.732;30.468;2023-06-10T12:28:17;9.20;;;8.70;;
73168;SDS011;61379;59.732;30.468;2023-06-10T12:30:48;8.63;;;8.13;;
73168;SDS011;61379;59.732;30.468;2023-06-10T12:33:18;7.82;;;7.32;;
73168;SDS011;61379;59.732;30.468;2023-06-10T12:35:48;9.55;;;8.85;;
73168;SDS011;61379;59.732;30.468;2023-06-10T12:38:20;9.07;;;8.57;;
73168;SDS011;61379;59.732;30.468;2023-06-10T12:40:47;9.52;;;8.93;;
73168;SDS011;61379;59.732;30.468;2023-06-10T12:43:18;9.85;;;9.20;;
73168;SDS011;61379;59.732;30.468;2023-06-10T12:45:45;8.95;;;8.35;;
73168;SDS011;61379;59.732;30.468;2023-06-10T12:48:17;8.77;;;8.20;;
73168;SDS011;61379;59.732;30.468;2023-06-10T12:50:46;8.73;;;8.23;;
73168;SDS011;61379;59.732;30.468;2023-06-10T12:53:13;8.60;;;8.10;;
73168;SDS011;61379;59.732;30.468;2023-06-10T12:55:40;9.60;;;8.70;;
73168;SDS011;61379;59.732;30.468;2023-06-10T12:58:07;9.20;;;8.60;;
73168;SDS011;61379;59.732;30.468;2023-06-10T13:00:33;8.80;;;8.07;;
73168;SDS011;61379;59.732;30.468;2023-06-10T13:03:01;9.52;;;8.82;;
73168;SDS011;61379;59.732;30.468;2023-06-10T13:05:29;9.35;;;8.65;;
73168;SDS011;61379;59.732;30.468;2023-06-10T13:10:23;9.18;;;8.27;;
73168;SDS011;61379;59.732;30.468;2023-06-10T13:12:50;8.85;;;8.20;;
73168;SDS011;61379;59.732;30.468;2023-06-10T13:15:17;8.88;;;8.18;;
73168;SDS011;61379;59.732;30.468;2023-06-10T13:17:44;8.80;;;8.30;;
73168;SDS011;61379;59.732;30.468;2023-06-10T13:20:14;8.93;;;8.13;;
73168;SDS011;61379;59.732;30.468;2023-06-10T13:22:43;8.90;;;8.23;;
73168;SDS011;61379;59.732;30.468;2023-06-10T13:25:10;8.63;;;7.93;;
73168;SDS011;61379;59.732;30.468;2023-06-10T13:27:37;9.60;;;8.68;;
73168;SDS011;61379;59.732;30.468;2023-06-10T13:30:05;9.20;;;8.60;;
73168;SDS011;61379;59.732;30.468;2023-06-10T13:32:32;8.18;;;7.57;;
73168;SDS011;61379;59.732;30.468;2023-06-10T13:34:59;9.85;;;9.20;;
73168;SDS011;61379;59.732;30.468;2023-06-10T13:37:26;12.10;;;8.05;;
73168;SDS011;61379;59.732;30.468;2023-06-10T13:39:54;9.38;;;8.45;;
73168;SDS011;61379;59.732;30.468;2023-06-10T13:42:21;8.55;;;8.05;;
73168;SDS011;61379;59.732;30.468;2023-06-10T13:44:48;8.77;;;8.18;;
73168;SDS011;61379;59.732;30.468;2023-06-10T13:47:15;9.20;;;8.70;;
73168;SDS011;61379;59.732;30.468;2023-06-10T13:49:41;9.07;;;8.48;;
73168;SDS011;61379;59.732;30.468;2023-06-10T13:52:08;8.50;;;8.00;;
73168;SDS011;61379;59.732;30.468;2023-06-10T13:54:35;10.20;;;9.40;;
73168;SDS011;61379;59.732;30.468;2023-06-10T13:57:04;9.23;;;8.48;;
73168;SDS011;61379;59.732;30.468;2023-06-10T13:59:31;8.38;;;7.88;;
73168;SDS011;61379;59.732;30.468;2023-06-10T14:01:58;9.32;;;8.68;;
73168;SDS011;61379;59.732;30.468;2023-06-10T14:04:25;9.13;;;8.30;;
73168;SDS011;61379;59.732;30.468;2023-06-10T14:06:52;11.75;;;10.77;;
73168;SDS011;61379;59.732;30.468;2023-06-10T14:09:19;8.43;;;7.93;;
73168;SDS011;61379;59.732;30.468;2023-06-10T14:11:45;8.65;;;7.97;;
73168;SDS011;61379;59.732;30.468;2023-06-10T14:14:14;11.55;;;8.32;;
73168;SDS011;61379;59.732;30.468;2023-06-10T14:16:41;8.88;;;8.18;;
73168;SDS011;61379;59.732;30.468;2023-06-10T14:19:08;8.90;;;8.20;;
73168;SDS011;61379;59.732;30.468;2023-06-10T14:21:34;9.23;;;8.63;;
73168;SDS011;61379;59.732;30.468;2023-06-10T14:24:02;8.57;;;7.78;;
73168;SDS011;61379;59.732;30.468;2023-06-10T14:26:28;7.07;;;6.57;;
73168;SDS011;61379;59.732;30.468;2023-06-10T14:28:56;8.93;;;8.43;;
73168;SDS011;61379;59.732;30.468;2023-06-10T14:31:24;9.15;;;8.57;;
73168;SDS011;61379;59.732;30.468;2023-06-10T14:33:51;7.32;;;6.82;;
73168;SDS011;61379;59.732;30.468;2023-06-10T14:36:18;9.95;;;9.25;;
73168;SDS011;61379;59.732;30.468;2023-06-10T14:38:45;9.43;;;8.82;;
73168;SDS011;61379;59.732;30.468;2023-06-10T14:41:12;10.13;;;9.32;;
73168;SDS011;61379;59.732;30.468;2023-06-10T14:43:39;9.70;;;9.00;;